sensor_id;sensor_type;location;lat;lon;timestamp;P1;durP1;ratioP1;P2;durP2;ratioP2
72406;SDS011;60396;47.550;18.828;2024-01-06T00:01:59;10.60;;;3.92;;
72406;SDS011;60396;47.550;18.828;2024-01-06T00:04:27;12.53;;;4.10;;
72406;SDS011;60396;47.550;18.828;2024-01-06T00:06:55;10.68;;;3.62;;
72406;SDS011;60396;47.550;18.828;2024-01-06T00:09:23;11.52;;;3.45;;
72406;SDS011;60396;47.550;18.828;2024-01-06T00:11:51;10.35;;;3.58;;
72406;SDS011;60396;47.550;18.828;2024-01-06T00:14:18;10.52;;;3.90;;
72406;SDS011;60396;47.550;18.828;2024-01-06T00:16:46;10.73;;;3.37;;
72406;SDS011;60396;47.550;18.828;2024-01-06T00:19:14;10.00;;;3.97;;
72406;SDS011;60396;47.550;18.828;2024-01-06T00:21:43;11.25;;;3.97;;
72406;SDS011;60396;47.550;18.828;2024-01-06T00:24:11;13.27;;;3.75;;
72406;SDS011;60396;47.550;18.828;2024-01-06T00:26:39;12.35;;;4.00;;
72406;SDS011;60396;47.550;18.828;2024-01-06T00:29:07;10.63;;;4.00;;
72406;SDS011;60396;47.550;18.828;2024-01-06T00:31:35;9.88;;;3.65;;
72406;SDS011;60396;47.550;18.828;2024-01-06T00:34:03;11.70;;;3.72;;
72406;SDS011;60396;47.550;18.828;2024-01-06T00:36:31;11.88;;;3.45;;
72406;SDS011;60396;47.550;18.828;2024-01-06T00:38:59;9.45;;;3.20;;
72406;SDS011;60396;47.550;18.828;2024-01-06T00:41:27;10.87;;;3.40;;
72406;SDS011;60396;47.550;18.828;2024-01-06T00:43:55;8.68;;;2.50;;
72406;SDS011;60396;47.550;18.828;2024-01-06T00:46:22;9.65;;;3.37;;
72406;SDS011;60396;47.550;18.828;2024-01-06T00:48:51;9.90;;;3.25;;
72406;SDS011;60396;47.550;18.828;2024-01-06T00:51:19;9.57;;;3.40;;
72406;SDS011;60396;47.550;18.828;2024-01-06T00:53:46;9.40;;;3.17;;
72406;SDS011;60396;47.550;18.828;2024-01-06T00:56:15;9.80;;;3.83;;
72406;SDS011;60396;47.550;18.828;2024-01-06T00:58:43;8.85;;;3.37;;
72406;SDS011;60396;47.550;18.828;2024-01-06T01:01:10;11.63;;;3.80;;
72406;SDS011;60396;47.550;18.828;2024-01-06T01:03:39;11.02;;;3.95;;
72406;SDS011;60396;47.550;18.828;2024-01-06T01:06:07;10.17;;;4.10;;
72406;SDS011;60396;47.550;18.828;2024-01-06T01:08:35;9.85;;;3.87;;
72406;SDS011;60396;47.550;18.828;2024-01-06T01:11:03;12.55;;;4.12;;
72406;SDS011;60396;47.550;18.828;2024-01-06T01:13:31;11.05;;;3.90;;
72406;SDS011;60396;47.550;18.828;2024-01-06T01:15:59;11.25;;;4.07;;
72406;SDS011;60396;47.550;18.828;2024-01-06T01:18:26;12.20;;;3.60;;
72406;SDS011;60396;47.550;18.828;2024-01-06T01:20:54;14.15;;;3.78;;
72406;SDS011;60396;47.550;18.828;2024-01-06T01:23:23;10.75;;;4.03;;
72406;SDS011;60396;47.550;18.828;2024-01-06T01:25:51;10.93;;;3.95;;
72406;SDS011;60396;47.550;18.828;2024-01-06T01:28:19;11.12;;;3.90;;
72406;SDS011;60396;47.550;18.828;2024-01-06T01:30:46;10.77;;;3.60;;
72406;SDS011;60396;47.550;18.828;2024-01-06T01:33:14;11.32;;;4.15;;
72406;SDS011;60396;47.550;18.828;2024-01-06T01:35:42;11.25;;;4.37;;
72406;SDS011;60396;47.550;18.828;2024-01-06T01:38:10;13.10;;;4.18;;
72406;SDS011;60396;47.550;18.828;2024-01-06T01:40:38;12.07;;;4.43;;
72406;SDS011;60396;47.550;18.828;2024-01-06T01:43:06;13.60;;;4.50;;
72406;SDS011;60396;47.550;18.828;2024-01-06T01:45:43;12.48;;;4.43;;
72406;SDS011;60396;47.550;18.828;2024-01-06T01:48:11;10.48;;;4.15;;
72406;SDS011;60396;47.550;18.828;2024-01-06T01:50:40;10.70;;;4.40;;
72406;SDS011;60396;47.550;18.828;2024-01-06T01:53:08;12.37;;;4.35;;
72406;SDS011;60396;47.550;18.828;2024-01-06T01:55:35;10.53;;;4.40;;
72406;SDS011;60396;47.550;18.828;2024-01-06T01:58:03;13.43;;;5.22;;
72406;SDS011;60396;47.550;18.828;2024-01-06T02:00:32;12.40;;;4.97;;
72406;SDS011;60396;47.550;18.828;2024-01-06T02:03:00;11.80;;;4.87;;
72406;SDS011;60396;47.550;18.828;2024-01-06T02:05:30;14.07;;;5.53;;
72406;SDS011;60396;47.550;18.828;2024-01-06T02:07:58;12.87;;;5.10;;
72406;SDS011;60396;47.550;18.828;2024-01-06T02:10:27;13.35;;;5.65;;
72406;SDS011;60396;47.550;18.828;2024-01-06T02:12:57;14.50;;;5.15;;
72406;SDS011;60396;47.550;18.828;2024-01-06T02:15:24;13.62;;;5.15;;
72406;SDS011;60396;47.550;18.828;2024-01-06T02:17:52;12.07;;;4.72;;
72406;SDS011;60396;47.550;18.828;2024-01-06T02:20:20;12.13;;;4.67;;
72406;SDS011;60396;47.550;18.828;2024-01-06T02:22:51;10.95;;;4.55;;
72406;SDS011;60396;47.550;18.828;2024-01-06T02:25:18;15.65;;;5.53;;
72406;SDS011;60396;47.550;18.828;2024-01-06T02:27:47;12.70;;;5.37;;
72406;SDS011;60396;47.550;18.828;2024-01-06T02:30:15;16.05;;;6.03;;
72406;SDS011;60396;47.550;18.828;2024-01-06T02:32:43;13.03;;;5.67;;
72406;SDS011;60396;47.550;18.828;2024-01-06T02:35:11;13.68;;;6.07;;
72406;SDS011;60396;47.550;18.828;2024-01-06T02:37:39;21.35;;;6.00;;
72406;SDS011;60396;47.550;18.828;2024-01-06T02:40:07;14.10;;;5.82;;
72406;SDS011;60396;47.550;18.828;2024-01-06T02:42:35;13.10;;;5.18;;
72406;SDS011;60396;47.550;18.828;2024-01-06T02:45:04;10.57;;;5.30;;
72406;SDS011;60396;47.550;18.828;2024-01-06T02:47:32;12.75;;;5.43;;
72406;SDS011;60396;47.550;18.828;2024-01-06T02:50:00;12.98;;;5.50;;
72406;SDS011;60396;47.550;18.828;2024-01-06T02:52:28;14.55;;;6.00;;
72406;SDS011;60396;47.550;18.828;2024-01-06T02:54:55;14.10;;;5.53;;
72406;SDS011;60396;47.550;18.828;2024-01-06T02:57:24;11.90;;;5.30;;
72406;SDS011;60396;47.550;18.828;2024-01-06T02:59:52;13.48;;;5.68;;
72406;SDS011;60396;47.550;18.828;2024-01-06T03:02:19;12.95;;;5.00;;
72406;SDS011;60396;47.550;18.828;2024-01-06T03:04:47;14.25;;;5.68;;
72406;SDS011;60396;47.550;18.828;2024-01-06T03:07:15;13.55;;;5.95;;
72406;SDS011;60396;47.550;18.828;2024-01-06T03:09:43;12.93;;;5.57;;
72406;SDS011;60396;47.550;18.828;2024-01-06T03:12:11;22.27;;;5.87;;
72406;SDS011;60396;47.550;18.828;2024-01-06T03:14:38;13.48;;;5.57;;
72406;SDS011;60396;47.550;18.828;2024-01-06T03:17:06;14.38;;;5.68;;
72406;SDS011;60396;47.550;18.828;2024-01-06T03:19:34;13.90;;;6.30;;
72406;SDS011;60396;47.550;18.828;2024-01-06T03:22:02;14.43;;;5.27;;
72406;SDS011;60396;47.550;18.828;2024-01-06T03:24:30;15.45;;;6.12;;
72406;SDS011;60396;47.550;18.828;2024-01-06T03:26:58;13.55;;;6.00;;
72406;SDS011;60396;47.550;18.828;2024-01-06T03:29:26;11.73;;;5.72;;
72406;SDS011;60396;47.550;18.828;2024-01-06T03:31:54;15.15;;;5.68;;
72406;SDS011;60396;47.550;18.828;2024-01-06T03:34:22;14.23;;;5.33;;
72406;SDS011;60396;47.550;18.828;2024-01-06T03:36:50;14.30;;;6.93;;
72406;SDS011;60396;47.550;18.828;2024-01-06T03:39:18;14.07;;;6.72;;
72406;SDS011;60396;47.550;18.828;2024-01-06T03:41:46;15.82;;;6.32;;
72406;SDS011;60396;47.550;18.828;2024-01-06T03:44:15;13.07;;;5.95;;
72406;SDS011;60396;47.550;18.828;2024-01-06T03:46:43;15.50;;;6.10;;
72406;SDS011;60396;47.550;18.828;2024-01-06T03:49:11;15.15;;;6.82;;
72406;SDS011;60396;47.550;18.828;2024-01-06T03:51:39;15.48;;;6.57;;
72406;SDS011;60396;47.550;18.828;2024-01-06T03:54:07;16.17;;;6.50;;
72406;SDS011;60396;47.550;18.828;2024-01-06T03:56:35;15.27;;;5.95;;
72406;SDS011;60396;47.550;18.828;2024-01-06T03:59:03;13.10;;;5.67;;
72406;SDS011;60396;47.550;18.828;2024-01-06T04:01:30;13.60;;;5.72;;
72406;SDS011;60396;47.550;18.828;2024-01-06T04:04:02;16.83;;;7.43;;
72406;SDS011;60396;47.550;18.828;2024-01-06T04:06:30;15.25;;;6.80;;
72406;SDS011;60396;47.550;18.828;2024-01-06T04:09:01;14.23;;;6.70;;
72406;SDS011;60396;47.550;18.828;2024-01-06T04:11:29;17.37;;;7.03;;
72406;SDS011;60396;47.550;18.828;2024-01-06T04:13:57;16.33;;;7.32;;
72406;SDS011;60396;47.550;18.828;2024-01-06T04:16:26;17.25;;;7.12;;
72406;SDS011;60396;47.550;18.828;2024-01-06T04:18:55;15.30;;;6.80;;
72406;SDS011;60396;47.550;18.828;2024-01-06T04:21:23;15.68;;;7.32;;
72406;SDS011;60396;47.550;18.828;2024-01-06T04:23:51;16.40;;;6.93;;
72406;SDS011;60396;47.550;18.828;2024-01-06T04:26:19;15.27;;;7.07;;
72406;SDS011;60396;47.550;18.828;2024-01-06T04:28:46;16.80;;;7.45;;
72406;SDS011;60396;47.550;18.828;2024-01-06T04:31:14;17.33;;;7.57;;
72406;SDS011;60396;47.550;18.828;2024-01-06T04:33:42;16.80;;;8.10;;
72406;SDS011;60396;47.550;18.828;2024-01-06T04:36:10;16.50;;;8.60;;
72406;SDS011;60396;47.550;18.828;2024-01-06T04:38:38;16.25;;;8.20;;
72406;SDS011;60396;47.550;18.828;2024-01-06T04:41:07;17.17;;;8.82;;
72406;SDS011;60396;47.550;18.828;2024-01-06T04:43:34;18.60;;;8.20;;
72406;SDS011;60396;47.550;18.828;2024-01-06T04:46:02;20.45;;;9.30;;
72406;SDS011;60396;47.550;18.828;2024-01-06T04:48:30;19.73;;;8.97;;
72406;SDS011;60396;47.550;18.828;2024-01-06T04:50:58;18.48;;;9.45;;
72406;SDS011;60396;47.550;18.828;2024-01-06T04:53:26;20.62;;;9.73;;
72406;SDS011;60396;47.550;18.828;2024-01-06T04:55:53;18.33;;;8.80;;
72406;SDS011;60396;47.550;18.828;2024-01-06T04:58:21;19.00;;;7.97;;
72406;SDS011;60396;47.550;18.828;2024-01-06T05:00:49;14.57;;;7.20;;
72406;SDS011;60396;47.550;18.828;2024-01-06T05:03:19;15.50;;;7.37;;
72406;SDS011;60396;47.550;18.828;2024-01-06T05:05:47;17.48;;;8.10;;
72406;SDS011;60396;47.550;18.828;2024-01-06T05:08:14;16.20;;;7.72;;
72406;SDS011;60396;47.550;18.828;2024-01-06T05:10:45;17.20;;;8.20;;
72406;SDS011;60396;47.550;18.828;2024-01-06T05:13:16;16.50;;;7.43;;
72406;SDS011;60396;47.550;18.828;2024-01-06T05:15:45;17.67;;;7.05;;
72406;SDS011;60396;47.550;18.828;2024-01-06T05:18:13;15.77;;;7.95;;
72406;SDS011;60396;47.550;18.828;2024-01-06T05:20:41;16.50;;;7.60;;
72406;SDS011;60396;47.550;18.828;2024-01-06T05:23:09;15.85;;;7.82;;
72406;SDS011;60396;47.550;18.828;2024-01-06T05:25:37;16.97;;;8.00;;
72406;SDS011;60396;47.550;18.828;2024-01-06T05:28:05;17.00;;;8.23;;
72406;SDS011;60396;47.550;18.828;2024-01-06T05:30:33;19.62;;;8.60;;
72406;SDS011;60396;47.550;18.828;2024-01-06T05:33:01;15.60;;;7.75;;
72406;SDS011;60396;47.550;18.828;2024-01-06T05:35:29;17.35;;;8.05;;
72406;SDS011;60396;47.550;18.828;2024-01-06T05:37:57;15.80;;;7.03;;
72406;SDS011;60396;47.550;18.828;2024-01-06T05:40:25;15.25;;;7.00;;
72406;SDS011;60396;47.550;18.828;2024-01-06T05:42:52;15.65;;;7.37;;
72406;SDS011;60396;47.550;18.828;2024-01-06T05:45:23;16.12;;;7.03;;
72406;SDS011;60396;47.550;18.828;2024-01-06T05:47:55;19.42;;;8.23;;
72406;SDS011;60396;47.550;18.828;2024-01-06T05:50:23;15.67;;;6.60;;
72406;SDS011;60396;47.550;18.828;2024-01-06T05:52:50;14.85;;;6.28;;
72406;SDS011;60396;47.550;18.828;2024-01-06T05:55:19;15.27;;;6.47;;
72406;SDS011;60396;47.550;18.828;2024-01-06T05:57:47;17.83;;;7.82;;
72406;SDS011;60396;47.550;18.828;2024-01-06T06:00:15;14.98;;;7.87;;
72406;SDS011;60396;47.550;18.828;2024-01-06T06:02:44;18.57;;;7.40;;
72406;SDS011;60396;47.550;18.828;2024-01-06T06:05:11;17.60;;;7.40;;
72406;SDS011;60396;47.550;18.828;2024-01-06T06:07:40;15.77;;;7.53;;
72406;SDS011;60396;47.550;18.828;2024-01-06T06:10:10;21.70;;;7.05;;
72406;SDS011;60396;47.550;18.828;2024-01-06T06:12:38;14.90;;;6.57;;
72406;SDS011;60396;47.550;18.828;2024-01-06T06:15:06;13.73;;;6.47;;
72406;SDS011;60396;47.550;18.828;2024-01-06T06:17:35;15.45;;;6.62;;
72406;SDS011;60396;47.550;18.828;2024-01-06T06:20:03;15.38;;;8.00;;
72406;SDS011;60396;47.550;18.828;2024-01-06T06:22:33;14.98;;;6.35;;
72406;SDS011;60396;47.550;18.828;2024-01-06T06:25:02;15.18;;;7.43;;
72406;SDS011;60396;47.550;18.828;2024-01-06T06:27:31;16.37;;;6.50;;
72406;SDS011;60396;47.550;18.828;2024-01-06T06:29:59;15.77;;;6.70;;
72406;SDS011;60396;47.550;18.828;2024-01-06T06:32:27;15.00;;;6.65;;
72406;SDS011;60396;47.550;18.828;2024-01-06T06:34:55;15.68;;;6.57;;
72406;SDS011;60396;47.550;18.828;2024-01-06T06:37:23;13.75;;;7.22;;
72406;SDS011;60396;47.550;18.828;2024-01-06T06:39:51;14.87;;;7.13;;
72406;SDS011;60396;47.550;18.828;2024-01-06T06:42:19;19.08;;;7.03;;
72406;SDS011;60396;47.550;18.828;2024-01-06T06:44:46;16.45;;;7.78;;
72406;SDS011;60396;47.550;18.828;2024-01-06T06:47:14;13.90;;;6.70;;
72406;SDS011;60396;47.550;18.828;2024-01-06T06:49:42;15.60;;;7.55;;
72406;SDS011;60396;47.550;18.828;2024-01-06T06:52:10;16.53;;;7.87;;
72406;SDS011;60396;47.550;18.828;2024-01-06T06:54:39;16.90;;;7.90;;
72406;SDS011;60396;47.550;18.828;2024-01-06T06:57:07;16.65;;;8.60;;
72406;SDS011;60396;47.550;18.828;2024-01-06T06:59:35;17.27;;;9.35;;
72406;SDS011;60396;47.550;18.828;2024-01-06T07:02:03;18.15;;;8.65;;
72406;SDS011;60396;47.550;18.828;2024-01-06T07:04:31;17.77;;;8.53;;
72406;SDS011;60396;47.550;18.828;2024-01-06T07:06:58;17.50;;;8.25;;
72406;SDS011;60396;47.550;18.828;2024-01-06T07:09:27;21.92;;;9.02;;
72406;SDS011;60396;47.550;18.828;2024-01-06T07:11:56;17.62;;;8.55;;
72406;SDS011;60396;47.550;18.828;2024-01-06T07:14:24;17.92;;;8.90;;
72406;SDS011;60396;47.550;18.828;2024-01-06T07:16:52;18.17;;;8.60;;
72406;SDS011;60396;47.550;18.828;2024-01-06T07:19:20;18.40;;;8.07;;
72406;SDS011;60396;47.550;18.828;2024-01-06T07:21:48;15.50;;;7.87;;
72406;SDS011;60396;47.550;18.828;2024-01-06T07:24:16;15.38;;;7.82;;
72406;SDS011;60396;47.550;18.828;2024-01-06T07:26:44;16.30;;;8.00;;
72406;SDS011;60396;47.550;18.828;2024-01-06T07:29:11;25.23;;;12.50;;
72406;SDS011;60396;47.550;18.828;2024-01-06T07:31:39;26.62;;;13.82;;
72406;SDS011;60396;47.550;18.828;2024-01-06T07:34:07;31.37;;;15.77;;
72406;SDS011;60396;47.550;18.828;2024-01-06T07:36:35;31.17;;;16.40;;
72406;SDS011;60396;47.550;18.828;2024-01-06T07:39:03;28.05;;;15.80;;
72406;SDS011;60396;47.550;18.828;2024-01-06T07:41:32;27.90;;;14.67;;
72406;SDS011;60396;47.550;18.828;2024-01-06T07:43:59;30.92;;;15.52;;
72406;SDS011;60396;47.550;18.828;2024-01-06T07:46:30;27.77;;;14.50;;
72406;SDS011;60396;47.550;18.828;2024-01-06T07:48:59;24.50;;;13.82;;
72406;SDS011;60396;47.550;18.828;2024-01-06T07:51:27;28.77;;;14.05;;
72406;SDS011;60396;47.550;18.828;2024-01-06T07:53:55;26.00;;;13.50;;
72406;SDS011;60396;47.550;18.828;2024-01-06T07:56:23;26.40;;;14.45;;
72406;SDS011;60396;47.550;18.828;2024-01-06T07:58:51;25.00;;;13.85;;
72406;SDS011;60396;47.550;18.828;2024-01-06T08:01:22;27.00;;;14.20;;
72406;SDS011;60396;47.550;18.828;2024-01-06T08:03:51;27.55;;;13.85;;
72406;SDS011;60396;47.550;18.828;2024-01-06T08:06:19;28.20;;;14.57;;
72406;SDS011;60396;47.550;18.828;2024-01-06T08:08:47;26.60;;;14.35;;
72406;SDS011;60396;47.550;18.828;2024-01-06T08:11:15;23.95;;;13.90;;
72406;SDS011;60396;47.550;18.828;2024-01-06T08:13:42;27.85;;;14.15;;
72406;SDS011;60396;47.550;18.828;2024-01-06T08:16:10;23.90;;;14.43;;
72406;SDS011;60396;47.550;18.828;2024-01-06T08:18:37;23.87;;;13.77;;
72406;SDS011;60396;47.550;18.828;2024-01-06T08:21:05;21.92;;;12.52;;
72406;SDS011;60396;47.550;18.828;2024-01-06T08:23:33;22.05;;;12.82;;
72406;SDS011;60396;47.550;18.828;2024-01-06T08:26:01;18.85;;;10.32;;
72406;SDS011;60396;47.550;18.828;2024-01-06T08:28:29;17.62;;;8.93;;
72406;SDS011;60396;47.550;18.828;2024-01-06T08:30:57;16.10;;;8.60;;
72406;SDS011;60396;47.550;18.828;2024-01-06T08:33:25;17.42;;;8.80;;
72406;SDS011;60396;47.550;18.828;2024-01-06T08:35:53;16.98;;;8.93;;
72406;SDS011;60396;47.550;18.828;2024-01-06T08:38:20;18.20;;;9.00;;
72406;SDS011;60396;47.550;18.828;2024-01-06T08:40:50;20.48;;;8.95;;
72406;SDS011;60396;47.550;18.828;2024-01-06T08:43:19;20.33;;;11.40;;
72406;SDS011;60396;47.550;18.828;2024-01-06T08:45:47;19.92;;;10.15;;
72406;SDS011;60396;47.550;18.828;2024-01-06T08:48:15;29.50;;;15.63;;
72406;SDS011;60396;47.550;18.828;2024-01-06T08:50:43;20.12;;;11.05;;
72406;SDS011;60396;47.550;18.828;2024-01-06T08:53:12;20.98;;;10.75;;
72406;SDS011;60396;47.550;18.828;2024-01-06T08:55:40;16.97;;;9.23;;
72406;SDS011;60396;47.550;18.828;2024-01-06T08:58:12;18.92;;;9.05;;
72406;SDS011;60396;47.550;18.828;2024-01-06T09:00:40;17.52;;;9.88;;
72406;SDS011;60396;47.550;18.828;2024-01-06T09:03:08;19.30;;;8.85;;
72406;SDS011;60396;47.550;18.828;2024-01-06T09:05:37;16.00;;;8.32;;
72406;SDS011;60396;47.550;18.828;2024-01-06T09:08:05;23.97;;;10.30;;
72406;SDS011;60396;47.550;18.828;2024-01-06T09:10:33;20.83;;;9.85;;
72406;SDS011;60396;47.550;18.828;2024-01-06T09:13:01;22.20;;;10.35;;
72406;SDS011;60396;47.550;18.828;2024-01-06T09:15:29;22.33;;;12.10;;
72406;SDS011;60396;47.550;18.828;2024-01-06T09:17:57;25.25;;;13.70;;
72406;SDS011;60396;47.550;18.828;2024-01-06T09:20:24;28.23;;;14.40;;
72406;SDS011;60396;47.550;18.828;2024-01-06T09:22:52;26.90;;;15.05;;
72406;SDS011;60396;47.550;18.828;2024-01-06T09:25:20;28.83;;;14.13;;
72406;SDS011;60396;47.550;18.828;2024-01-06T09:27:52;24.02;;;13.15;;
72406;SDS011;60396;47.550;18.828;2024-01-06T09:30:21;23.08;;;12.90;;
72406;SDS011;60396;47.550;18.828;2024-01-06T09:32:49;25.23;;;13.33;;
72406;SDS011;60396;47.550;18.828;2024-01-06T09:35:17;25.73;;;13.55;;
72406;SDS011;60396;47.550;18.828;2024-01-06T09:37:44;21.48;;;12.43;;
72406;SDS011;60396;47.550;18.828;2024-01-06T09:40:12;27.75;;;14.20;;
72406;SDS011;60396;47.550;18.828;2024-01-06T09:42:41;36.38;;;20.98;;
72406;SDS011;60396;47.550;18.828;2024-01-06T09:45:09;43.57;;;23.67;;
72406;SDS011;60396;47.550;18.828;2024-01-06T09:47:37;32.42;;;17.95;;
72406;SDS011;60396;47.550;18.828;2024-01-06T09:50:08;31.02;;;17.52;;
72406;SDS011;60396;47.550;18.828;2024-01-06T09:52:39;42.22;;;21.33;;
72406;SDS011;60396;47.550;18.828;2024-01-06T09:55:11;42.25;;;22.37;;
72406;SDS011;60396;47.550;18.828;2024-01-06T09:57:39;32.90;;;17.77;;
72406;SDS011;60396;47.550;18.828;2024-01-06T10:00:07;33.67;;;17.92;;
72406;SDS011;60396;47.550;18.828;2024-01-06T10:02:37;30.85;;;17.27;;
72406;SDS011;60396;47.550;18.828;2024-01-06T10:05:06;28.77;;;16.12;;
72406;SDS011;60396;47.550;18.828;2024-01-06T10:07:34;34.38;;;16.12;;
72406;SDS011;60396;47.550;18.828;2024-01-06T10:10:02;25.97;;;12.80;;
72406;SDS011;60396;47.550;18.828;2024-01-06T10:12:30;27.48;;;14.35;;
72406;SDS011;60396;47.550;18.828;2024-01-06T10:14:59;21.40;;;11.65;;
72406;SDS011;60396;47.550;18.828;2024-01-06T10:17:27;18.62;;;8.73;;
72406;SDS011;60396;47.550;18.828;2024-01-06T10:19:55;19.83;;;9.35;;
72406;SDS011;60396;47.550;18.828;2024-01-06T10:22:24;17.53;;;9.23;;
72406;SDS011;60396;47.550;18.828;2024-01-06T10:24:52;16.75;;;8.18;;
72406;SDS011;60396;47.550;18.828;2024-01-06T10:27:20;16.67;;;8.52;;
72406;SDS011;60396;47.550;18.828;2024-01-06T10:29:49;18.33;;;9.25;;
72406;SDS011;60396;47.550;18.828;2024-01-06T10:32:17;17.85;;;9.35;;
72406;SDS011;60396;47.550;18.828;2024-01-06T10:34:46;23.77;;;11.93;;
72406;SDS011;60396;47.550;18.828;2024-01-06T10:37:13;19.40;;;9.95;;
72406;SDS011;60396;47.550;18.828;2024-01-06T10:39:41;19.48;;;9.35;;
72406;SDS011;60396;47.550;18.828;2024-01-06T10:42:09;19.85;;;9.50;;
72406;SDS011;60396;47.550;18.828;2024-01-06T10:44:39;17.98;;;8.75;;
72406;SDS011;60396;47.550;18.828;2024-01-06T10:47:12;16.50;;;8.13;;
72406;SDS011;60396;47.550;18.828;2024-01-06T10:49:41;17.62;;;8.68;;
72406;SDS011;60396;47.550;18.828;2024-01-06T10:52:09;19.52;;;9.75;;
72406;SDS011;60396;47.550;18.828;2024-01-06T10:54:37;14.68;;;7.70;;
72406;SDS011;60396;47.550;18.828;2024-01-06T10:57:06;14.70;;;6.60;;
72406;SDS011;60396;47.550;18.828;2024-01-06T10:59:33;14.60;;;6.07;;
72406;SDS011;60396;47.550;18.828;2024-01-06T11:02:02;15.02;;;6.90;;
72406;SDS011;60396;47.550;18.828;2024-01-06T11:04:30;13.07;;;6.50;;
72406;SDS011;60396;47.550;18.828;2024-01-06T11:06:58;13.15;;;7.28;;
72406;SDS011;60396;47.550;18.828;2024-01-06T11:09:27;14.52;;;7.35;;
72406;SDS011;60396;47.550;18.828;2024-01-06T11:12:01;13.37;;;6.30;;
72406;SDS011;60396;47.550;18.828;2024-01-06T11:14:28;12.25;;;5.80;;
72406;SDS011;60396;47.550;18.828;2024-01-06T11:16:56;10.70;;;5.22;;
72406;SDS011;60396;47.550;18.828;2024-01-06T11:24:51;12.03;;;5.40;;
72406;SDS011;60396;47.550;18.828;2024-01-06T11:27:22;9.93;;;4.68;;
72406;SDS011;60396;47.550;18.828;2024-01-06T11:29:56;10.00;;;4.37;;
72406;SDS011;60396;47.550;18.828;2024-01-06T11:32:29;9.70;;;4.40;;
72406;SDS011;60396;47.550;18.828;2024-01-06T11:35:07;8.98;;;4.25;;
72406;SDS011;60396;47.550;18.828;2024-01-06T11:42:49;11.35;;;5.18;;
72406;SDS011;60396;47.550;18.828;2024-01-06T11:45:30;11.75;;;4.40;;
72406;SDS011;60396;47.550;18.828;2024-01-06T11:48:00;11.23;;;4.72;;
72406;SDS011;60396;47.550;18.828;2024-01-06T11:50:31;9.60;;;4.67;;
72406;SDS011;60396;47.550;18.828;2024-01-06T11:53:01;10.00;;;4.72;;
72406;SDS011;60396;47.550;18.828;2024-01-06T11:55:29;11.65;;;5.12;;
72406;SDS011;60396;47.550;18.828;2024-01-06T11:58:00;10.70;;;5.10;;
72406;SDS011;60396;47.550;18.828;2024-01-06T12:00:33;12.15;;;5.07;;
72406;SDS011;60396;47.550;18.828;2024-01-06T12:03:04;11.77;;;5.60;;
72406;SDS011;60396;47.550;18.828;2024-01-06T12:05:32;11.50;;;5.50;;
72406;SDS011;60396;47.550;18.828;2024-01-06T12:08:00;10.43;;;5.22;;
72406;SDS011;60396;47.550;18.828;2024-01-06T12:10:30;11.55;;;5.87;;
72406;SDS011;60396;47.550;18.828;2024-01-06T12:13:01;11.68;;;6.28;;
72406;SDS011;60396;47.550;18.828;2024-01-06T12:15:30;12.07;;;6.47;;
72406;SDS011;60396;47.550;18.828;2024-01-06T12:18:02;12.80;;;6.50;;
72406;SDS011;60396;47.550;18.828;2024-01-06T12:20:31;14.45;;;7.75;;
72406;SDS011;60396;47.550;18.828;2024-01-06T12:22:58;12.70;;;6.50;;
72406;SDS011;60396;47.550;18.828;2024-01-06T12:25:28;12.82;;;6.00;;
72406;SDS011;60396;47.550;18.828;2024-01-06T12:27:56;12.07;;;5.80;;
72406;SDS011;60396;47.550;18.828;2024-01-06T12:30:24;13.18;;;6.32;;
72406;SDS011;60396;47.550;18.828;2024-01-06T12:32:53;14.05;;;6.95;;
72406;SDS011;60396;47.550;18.828;2024-01-06T12:35:21;14.38;;;6.90;;
72406;SDS011;60396;47.550;18.828;2024-01-06T12:37:51;13.75;;;7.95;;
72406;SDS011;60396;47.550;18.828;2024-01-06T12:40:19;14.60;;;8.27;;
72406;SDS011;60396;47.550;18.828;2024-01-06T12:42:47;15.00;;;7.85;;
72406;SDS011;60396;47.550;18.828;2024-01-06T12:45:15;14.50;;;7.75;;
72406;SDS011;60396;47.550;18.828;2024-01-06T12:47:44;14.05;;;7.75;;
72406;SDS011;60396;47.550;18.828;2024-01-06T12:50:12;14.25;;;7.62;;
72406;SDS011;60396;47.550;18.828;2024-01-06T12:52:40;14.17;;;7.47;;
72406;SDS011;60396;47.550;18.828;2024-01-06T12:55:09;13.57;;;7.32;;
72406;SDS011;60396;47.550;18.828;2024-01-06T12:57:37;15.95;;;8.30;;
72406;SDS011;60396;47.550;18.828;2024-01-06T13:00:05;14.55;;;7.90;;
72406;SDS011;60396;47.550;18.828;2024-01-06T13:02:35;13.00;;;7.55;;
72406;SDS011;60396;47.550;18.828;2024-01-06T13:05:03;14.10;;;7.60;;
72406;SDS011;60396;47.550;18.828;2024-01-06T13:07:32;14.45;;;7.40;;
72406;SDS011;60396;47.550;18.828;2024-01-06T13:10:00;15.48;;;7.65;;
72406;SDS011;60396;47.550;18.828;2024-01-06T13:12:28;13.52;;;7.28;;
72406;SDS011;60396;47.550;18.828;2024-01-06T13:14:56;14.40;;;8.27;;
72406;SDS011;60396;47.550;18.828;2024-01-06T13:17:25;16.17;;;6.93;;
72406;SDS011;60396;47.550;18.828;2024-01-06T13:19:52;16.12;;;7.25;;
72406;SDS011;60396;47.550;18.828;2024-01-06T13:22:20;12.98;;;6.40;;
72406;SDS011;60396;47.550;18.828;2024-01-06T13:24:49;13.02;;;6.10;;
72406;SDS011;60396;47.550;18.828;2024-01-06T13:27:20;11.98;;;6.43;;
72406;SDS011;60396;47.550;18.828;2024-01-06T13:29:48;11.77;;;5.60;;
72406;SDS011;60396;47.550;18.828;2024-01-06T13:32:16;10.68;;;5.62;;
72406;SDS011;60396;47.550;18.828;2024-01-06T13:34:46;12.25;;;5.90;;
72406;SDS011;60396;47.550;18.828;2024-01-06T13:37:14;11.05;;;5.20;;
72406;SDS011;60396;47.550;18.828;2024-01-06T13:39:42;13.85;;;6.30;;
72406;SDS011;60396;47.550;18.828;2024-01-06T13:42:10;11.40;;;5.13;;
72406;SDS011;60396;47.550;18.828;2024-01-06T13:44:38;9.13;;;4.37;;
72406;SDS011;60396;47.550;18.828;2024-01-06T13:47:06;15.88;;;5.53;;
72406;SDS011;60396;47.550;18.828;2024-01-06T13:49:33;12.73;;;5.75;;
72406;SDS011;60396;47.550;18.828;2024-01-06T13:52:01;10.52;;;4.87;;
72406;SDS011;60396;47.550;18.828;2024-01-06T13:54:29;12.57;;;4.77;;
72406;SDS011;60396;47.550;18.828;2024-01-06T13:56:57;9.98;;;4.72;;
72406;SDS011;60396;47.550;18.828;2024-01-06T13:59:24;10.20;;;4.75;;
72406;SDS011;60396;47.550;18.828;2024-01-06T14:01:53;11.20;;;4.87;;
72406;SDS011;60396;47.550;18.828;2024-01-06T14:04:21;12.65;;;5.43;;
72406;SDS011;60396;47.550;18.828;2024-01-06T14:06:51;9.80;;;4.77;;
72406;SDS011;60396;47.550;18.828;2024-01-06T14:09:23;11.77;;;5.47;;
72406;SDS011;60396;47.550;18.828;2024-01-06T14:11:52;13.40;;;6.30;;
72406;SDS011;60396;47.550;18.828;2024-01-06T14:14:20;13.15;;;6.80;;
72406;SDS011;60396;47.550;18.828;2024-01-06T14:16:49;11.23;;;6.40;;
72406;SDS011;60396;47.550;18.828;2024-01-06T14:19:21;14.23;;;7.50;;
72406;SDS011;60396;47.550;18.828;2024-01-06T14:21:49;13.95;;;7.47;;
72406;SDS011;60396;47.550;18.828;2024-01-06T14:24:18;12.35;;;5.97;;
72406;SDS011;60396;47.550;18.828;2024-01-06T14:26:52;10.35;;;5.32;;
72406;SDS011;60396;47.550;18.828;2024-01-06T14:29:22;10.60;;;4.75;;
72406;SDS011;60396;47.550;18.828;2024-01-06T14:31:50;11.67;;;5.60;;
72406;SDS011;60396;47.550;18.828;2024-01-06T14:34:18;12.15;;;6.20;;
72406;SDS011;60396;47.550;18.828;2024-01-06T14:36:46;14.35;;;7.15;;
72406;SDS011;60396;47.550;18.828;2024-01-06T14:39:17;12.75;;;6.60;;